Latest Coastal Weather Observations for Gove Airport

IDD60701

Issued at 7:05 am CST Saturday 1 November 2014 (issued every 10 minutes, with the page automatically refreshed every 10 minutes)

About coastal observations | Map of coastal stations | Coastal observations for NT | Marine services | Other Formats
Station Details ID: 014508 Name: GOVE AIRPORT Lat: -12.27 Lon: 136.82 Height: 51.6 m
Data from the previous 72 hours. | See also: Recent months at Gove Airport
Date/Time
CST
Temp

°C
Wind Pressure Rain
since 9am
mm
Weather Cloud Vis
km
Sea
Height
m
Swell
Dir
 
Speed
knots
Gust
knots
hPa Trend Height
m
Period
s
Dir
01/07:00am 24.4 ENE 0 3 1012.4 - 0.0 - Mostly clear 10 - - - -
01/06:30am 20.6 CALM 0 0 1011.9 - 0.0 - Mostly clear 10 - - - -
01/06:00am 19.7 CALM 0 0 1011.2 R 0.0 Smoke Mostly clear 16 - - - -
01/05:30am 19.6 CALM 0 0 1011.1 - 0.0 - Partly cloudy 10 - - - -
01/05:00am 19.7 CALM 0 0 1010.6 - 0.0 - - 10 - - - -
01/04:30am 19.7 CALM 0 0 1010.4 - 0.0 - Partly cloudy 10 - - - -
01/04:00am 19.8 CALM 0 0 1010.1 - 0.0 - - 10 - - - -
01/03:30am 19.8 CALM 0 0 1009.8 - 0.0 - - 10 - - - -
01/03:00am 19.6 CALM 0 0 1009.2 - 0.0 - - 10 - - - -
01/02:30am 19.9 CALM 0 0 1009.6 - 0.0 - - 10 - - - -
01/02:00am 19.9 CALM 0 0 1009.7 - 0.0 - - 10 - - - -
01/01:30am 20.5 CALM 0 0 1009.8 - 0.0 - - 10 - - - -
01/01:00am 20.6 CALM 0 0 1010.2 - 0.0 - - 10 - - - -
01/12:30am 20.8 CALM 0 0 1010.7 - 0.0 - - 10 - - - -
01/12:00am 21.1 E 0 0 1010.6 - 0.0 - - 10 - - - -
 
Date/Time
CST
Temp

°C
Wind Pressure Rain
since 9am
mm
Weather Cloud Vis
km
Sea
Height
m
Swell
Dir
 
Speed
knots
Gust
knots
hPa Trend Height
m
Period
s
Dir
31/11:30pm 21.4 CALM 0 0 1011.3 - 0.0 - - 10 - - - -
31/11:00pm 21.5 CALM 0 0 1011.5 - 0.0 - - 10 - - - -
31/10:30pm 22.0 CALM 0 0 1011.6 - 0.0 - - 10 - - - -
31/10:00pm 22.6 ENE 2 4 1011.4 - 0.0 - - 10 - - - -
31/09:30pm 22.9 E 1 4 1011.1 - 0.0 - - 10 - - - -
31/09:00pm 24.7 ENE 4 5 1010.5 R 0.0 Smoke Clear 20 - - - -
31/08:30pm 25.0 ENE 4 5 1010.4 - 0.0 - Mostly clear 10 - - - -
31/08:00pm 25.4 ENE 5 7 1010.1 - 0.0 - Mostly clear 10 - - - -
31/07:30pm 25.6 NE 5 6 1009.6 - 0.0 - - 10 - - - -
31/07:00pm 26.0 NE 5 6 1009.4 - 0.0 - - 10 - - - -
31/06:30pm 26.3 NNE 7 8 1009.1 - 0.0 - Mostly clear 10 - - - -
31/06:00pm 27.0 NNE 7 9 1008.4 F 0.0 Smoke Mostly clear 22 - - - -
31/05:30pm 27.7 NNE 8 11 1008.6 - 0.0 - Mostly clear 10 - - - -
31/05:00pm 28.4 NNE 9 11 1008.5 - 0.0 - Mostly clear 10 - - - -
31/04:30pm 29.0 NE 9 12 1008.3 - 0.0 - Mostly clear 10 - - - -
31/04:00pm 28.9 NE 7 12 1008.5 - 0.0 - Mostly clear 10 - - - -
31/03:30pm 29.2 ENE 7 11 1008.7 - 0.0 - Mostly clear 10 - - - -
31/03:00pm 29.8 ENE 9 14 1008.4 F 0.0 Fine Mostly clear 22 - - - -
31/02:30pm 30.7 NE 8 12 1009.1 - 0.0 - Partly cloudy 10 - - - -
31/02:00pm 30.2 NE 9 15 1009.4 - 0.0 - Partly cloudy 10 - - - -
31/01:30pm 29.8 ENE 7 13 1009.7 - 0.0 - Partly cloudy 10 - - - -
31/01:00pm 30.3 NNE 11 14 1010.3 - 0.0 - Partly cloudy 10 - - - -
31/12:30pm 30.6 NE 10 16 1010.7 - 0.0 - Partly cloudy 10 - - - -
31/12:00pm 29.8 ENE 11 18 1010.9 R 0.0 Fine Partly cloudy 22 - - - -
31/11:30am 30.7 NE 10 16 1011.6 - 0.0 - Partly cloudy 10 - - - -
31/11:00am 29.6 ENE 11 15 1011.9 - 0.0 - Partly cloudy 10 - - - -
31/10:30am 29.5 NE 9 14 1012.1 - 0.0 - Partly cloudy 10 - - - -
31/10:00am 29.5 ENE 11 13 1012.1 - 0.0 - Partly cloudy 10 - - - -
31/09:30am 29.6 NNE 10 13 1012.3 - 0.0 - Partly cloudy 10 - - - -
31/09:00am 28.5 NNE 10 16 1011.9 R 0.0 Haze Partly cloudy 19 - - - -
31/08:30am 27.9 NNE 11 15 1012.1 - 0.0 - Partly cloudy 10 - - - -
31/08:00am 27.9 NNE 11 15 1011.8 - 0.0 - Partly cloudy 10 - - - -
31/07:30am 27.3 NE 9 14 1011.5 - 0.0 - Partly cloudy 10 - - - -
31/07:00am 26.1 NNE 8 11 1011.2 - 0.0 - Mostly clear 10 - - - -
31/06:30am 24.8 NNE 6 9 1010.8 - 0.0 - Mostly clear 10 - - - -
31/06:00am 23.9 NE 5 6 1010.1 R 0.0 Fine Partly cloudy 20 - - - -
31/05:30am 23.6 NNE 5 6 1010.2 - 0.0 - Partly cloudy 10 - - - -
31/05:00am 23.7 NNE 4 5 1010.0 - 0.0 - - 10 - - - -
31/04:30am 20.6 NNE 1 5 1009.7 - 0.0 - - 10 - - - -
31/04:00am 20.4 CALM 0 0 1009.5 - 0.0 - Partly cloudy 10 - - - -
31/03:30am 20.1 CALM 0 0 1009.2 - 0.0 - Partly cloudy 10 - - - -
31/03:00am 19.9 CALM 0 0 1008.7 - 0.0 - Mostly clear 10 - - - -
31/02:30am 20.1 CALM 0 0 1009.1 - 0.0 - - 10 - - - -
31/02:00am 20.2 CALM 0 0 1009.2 - 0.0 - - 10 - - - -
31/01:30am 20.7 CALM 0 0 1009.5 - 0.0 - - 10 - - - -
31/01:00am 21.2 CALM 0 0 1009.8 - 0.0 - Partly cloudy 10 - - - -
31/12:30am 21.0 CALM 0 0 1009.9 - 0.0 - Partly cloudy 10 - - - -
31/12:00am 21.1 CALM 0 0 1009.9 - 0.0 - Mostly clear 10 - - - -
 
Date/Time
CST
Temp

°C
Wind Pressure Rain
since 9am
mm
Weather Cloud Vis
km
Sea
Height
m
Swell
Dir
 
Speed
knots
Gust
knots
hPa Trend Height
m
Period
s
Dir
30/11:30pm 21.6 CALM 0 0 1010.6 - 0.0 - Partly cloudy 10 - - - -
30/11:00pm 21.6 CALM 0 0 1010.9 - 0.0 - Partly cloudy 10 - - - -
30/10:30pm 21.7 CALM 0 0 1011.1 - 0.0 - Partly cloudy 10 - - - -
30/10:00pm 21.9 CALM 0 0 1011.0 - 0.0 - - 10 - - - -
30/09:30pm 22.4 CALM 0 0 1010.7 - 0.0 - - 10 - - - -
30/09:00pm 22.9 NE 1 4 1010.0 F 0.0 Smoke Clear 20 - - - -
30/08:30pm 23.4 CALM 0 0 1010.2 - 0.0 - - 10 - - - -
30/08:00pm 25.4 ENE 4 5 1010.0 - 0.0 - - 10 - - - -
30/07:30pm 25.7 E 5 6 1009.7 - 0.0 - - 10 - - - -
30/07:00pm 26.1 E 5 7 1009.7 - 0.0 - - 10 - - - -
30/06:30pm 26.4 ENE 6 8 1009.4 - 0.0 - Mostly clear 10 - - - -
30/06:00pm 27.0 E 7 9 1008.8 F 0.0 Smoke Mostly clear 21 - - - -
30/05:30pm 28.0 ENE 6 8 1009.1 - 0.0 - Mostly clear 10 - - - -
30/05:00pm 27.9 NE 7 10 1009.0 - 0.0 - Mostly clear 10 - - - -
30/04:30pm 29.0 E 9 11 1008.9 - 0.0 - Mostly clear 10 - - - -
30/04:00pm 28.9 NE 7 13 1008.9 - 0.0 - Mostly clear 10 - - - -
30/03:30pm 29.8 ENE 8 12 1009.2 - 0.0 - Mostly clear 10 - - - -
30/03:00pm 31.2 NE 7 11 1009.1 R 0.0 Fine Mostly clear 21 - - - -
30/02:30pm 29.5 NNE 9 13 1009.5 - 0.0 - Mostly clear 10 - - - -
30/02:00pm 30.3 NNE 9 14 1009.5 - 0.0 - Mostly clear 10 - - - -
30/01:30pm 30.0 NE 9 14 1009.8 - 0.0 - Partly cloudy 10 - - - -
30/01:00pm 29.5 NNE 9 13 1010.5 - 0.0 - Partly cloudy 10 - - - -
30/12:30pm 30.1 NNE 9 13 1010.9 - 0.0 - Mostly clear 10 - - - -
30/12:00pm 29.6 NNE 8 14 1010.9 R 0.0 Fine Mostly clear 25 - - - -
30/11:30am 30.9 NNE 8 13 1011.5 - 0.0 - Mostly clear 10 - - - -
30/11:00am 30.0 NNE 9 14 1011.8 - 0.0 - Mostly clear 10 - - - -
30/10:30am 29.0 NNE 10 12 1012.0 - 0.0 - Mostly clear 10 - - - -
30/10:00am 28.8 N 9 15 1012.1 - 0.0 - Mostly clear 10 - - - -
30/09:30am 29.0 N 10 14 1012.3 - 0.0 - Mostly clear 10 - - - -
30/09:00am 28.4 NNE 11 15 1011.9 F 0.0 Haze Mostly clear 19 - - - -
30/08:30am 27.4 NNE 9 12 1012.2 - 0.0 - Mostly clear 10 - - - -
30/08:00am 26.5 N 7 11 1012.0 - 0.0 - Mostly clear 10 - - - -
30/07:30am 25.7 N 5 9 1011.8 - 0.0 - Mostly clear 10 - - - -
30/07:00am 22.9 CALM 0 0 1011.5 - 0.0 - - 10 - - - -
30/06:30am 20.1 CALM 0 0 1011.0 - 0.0 Fog patches Mostly clear 3 - - - -
30/06:00am 18.7 CALM 0 0 1010.3 F 0.0 Distant fog Partly cloudy 14 - - - -
30/05:30am 18.9 CALM 0 0 1010.7 - 0.0 - - 10 - - - -
30/05:00am 18.9 CALM 0 0 1010.4 - 0.0 - - 10 - - - -
30/04:30am 18.9 CALM 0 0 1010.2 - 0.0 - - 10 - - - -
30/04:00am 18.8 CALM 0 0 1010.0 - 0.0 - - 10 - - - -
30/03:30am 18.5 CALM 0 0 1009.8 - 0.0 - - 10 - - - -
30/03:00am 18.6 CALM 0 0 1009.4 - 0.0 - - 10 - - - -
30/02:30am 19.0 CALM 0 0 1009.8 - 0.0 - - 10 - - - -
30/02:00am 19.3 CALM 0 0 1010.1 - 0.0 - - 10 - - - -
30/01:30am 19.8 CALM 0 0 1010.5 - 0.0 - - 10 - - - -
30/01:00am 20.3 CALM 0 0 1011.0 - 0.0 - - 10 - - - -
30/12:30am 20.6 CALM 0 0 1011.4 - 0.0 - - 10 - - - -
30/12:00am 20.9 CALM 0 0 1011.5 - 0.0 - - 10 - - - -
 
Date/Time
CST
Temp

°C
Wind Pressure Rain
since 9am
mm
Weather Cloud Vis
km
Sea
Height
m
Swell
Dir
 
Speed
knots
Gust
knots
hPa Trend Height
m
Period
s
Dir
29/11:30pm 20.8 CALM 0 0 1012.2 - 0.0 - - 10 - - - -
29/11:00pm 21.2 ENE 2 4 1012.4 - 0.0 - - 10 - - - -
29/10:30pm 21.5 CALM 0 3 1012.7 - 0.0 - - 10 - - - -
29/10:00pm 21.7 ENE 3 5 1012.6 - 0.0 - Mostly clear 10 - - - -
29/09:30pm 21.7 CALM 0 0 1012.3 - 0.0 - - 10 - - - -
29/09:00pm 22.1 ESE 2 3 1011.8 F 0.0 Fine Mostly cloudy 22 - - - -
29/08:30pm 23.0 CALM 0 3 1011.9 - 0.0 - - 10 - - - -
29/08:00pm 25.0 E 4 5 1011.6 - 0.0 - - 10 - - - -
29/07:30pm 25.7 ENE 4 6 1011.4 - 0.0 - - 10 - - - -
29/07:00pm 25.9 ENE 5 6 1011.4 - 0.0 - - 10 - - - -
29/06:30pm 26.3 E 7 9 1011.0 - 0.0 - - 10 - - - -
29/06:00pm 27.1 ENE 7 8 1010.3 R 0.0 Smoke Mostly cloudy 22 - - - -
29/05:30pm 27.9 E 8 10 1010.6 - 0.0 - - 10 - - - -
29/05:00pm 28.1 ENE 9 11 1010.5 - 0.0 - - 10 - - - -
29/04:30pm 29.1 E 9 11 1010.6 - 0.0 - - 10 - - - -
29/04:00pm 29.8 ENE 10 14 1010.5 - 0.0 - - 10 - - - -
29/03:30pm 31.1 ENE 9 13 1010.4 - 0.0 - - 10 - - - -
29/03:00pm 31.4 NE 8 14 1009.9 R 0.0 Smoke Mostly cloudy 22 - - - -
29/02:30pm 31.3 NE 9 15 1010.4 - 0.0 - - 10 - - - -
29/02:00pm 32.1 NE 8 14 1010.6 - 0.0 - - 10 - - - -
29/01:30pm 31.7 NNE 8 14 1010.7 - 0.0 - - 10 - - - -
29/01:00pm 31.5 N 7 10 1011.2 - 0.0 - - 10 - - - -
29/12:30pm 31.4 N 8 14 1011.5 - 0.0 - - 10 - - - -
29/12:00pm 31.4 NNE 8 13 1011.3 F 0.0 Smoke Mostly cloudy 24 - - - -
29/11:30am 30.5 NNE 8 12 1012.1 - 0.0 - - 10 - - - -
29/11:00am 30.0 NNE 9 13 1012.3 - 0.0 - - 10 - - - -
29/10:30am 29.8 ENE 7 12 1012.4 - 0.0 - - 10 - - - -
29/10:00am 29.4 ENE 8 12 1012.8 - 0.0 - - 10 - - - -
29/09:30am 28.0 ENE 8 11 1013.0 - 0.0 - - 10 - - - -
29/09:00am 28.5 NE 8 11 1012.6 F 0.0 Fine Partly cloudy 23 - - - -
29/08:30am 27.5 NE 7 11 1012.9 - 0.0 - - 10 - - - -
29/08:00am 26.5 NE 8 10 1012.7 - 0.0 - - 10 - - - -
29/07:30am 25.7 NNE 4 6 1012.7 - 0.0 - - 10 - - - -

Other Formats:

Comma delimited format used in spreadsheet applications
http://www.bom.gov.au/fwo/IDD60701/IDD60701.94150.axf

JavaScript Object Notation format (JSON) in row-major order
http://www.bom.gov.au/fwo/IDD60701/IDD60701.94150.json